Aviation Digital Data Service (ADDS)

Output produced by METARs form (0005 UTC 22 November 2014)
found at http://aviationweather.gov/adds/metars/
 
METAR text: GVAC 220000Z 36004KT 9999 SCT015 23/19 Q1015 NOSIG
Conditions at: GVAC (SAL ISL/AMILCAR , CV) observed 0000 UTC 22 November 2014
Temperature: 23.0°C (73°F)
Dewpoint: 19.0°C (66°F) [RH = 78%]
Pressure (altimeter): 29.97 inches Hg (1015.0 mb)
Winds: from the N (360 degrees) at 5 MPH (4 knots; 2.1 m/s)
Visibility: 6 or more miles (10+ km)
Ceiling: at least 12,000 feet AGL
Clouds: scattered clouds at 1500 feet AGL
Weather: no significant weather observed at this time

METAR text: GVAC 212300Z 36005KT 9999 SCT014 23/19 Q1015 NOSIG
Conditions at: GVAC (SAL ISL/AMILCAR , CV) observed 2300 UTC 21 November 2014
Temperature: 23.0°C (73°F)
Dewpoint: 19.0°C (66°F) [RH = 78%]
Pressure (altimeter): 29.97 inches Hg (1015.0 mb)
Winds: from the N (360 degrees) at 6 MPH (5 knots; 2.6 m/s)
Visibility: 6 or more miles (10+ km)
Ceiling: at least 12,000 feet AGL
Clouds: scattered clouds at 1400 feet AGL
Weather: no significant weather observed at this time

METAR text: GVAC 212200Z 36005KT 9999 BKN014 23/19 Q1014 NOSIG
Conditions at: GVAC (SAL ISL/AMILCAR , CV) observed 2200 UTC 21 November 2014
Temperature: 23.0°C (73°F)
Dewpoint: 19.0°C (66°F) [RH = 78%]
Pressure (altimeter): 29.94 inches Hg (1014.0 mb)
Winds: from the N (360 degrees) at 6 MPH (5 knots; 2.6 m/s)
Visibility: 6 or more miles (10+ km)
Ceiling: 1400 feet AGL
Clouds: broken clouds at 1400 feet AGL
Weather: no significant weather observed at this time

METAR text: GVAC 212100Z 36005KT 9999 BKN014 24/19 Q1014 NOSIG
Conditions at: GVAC (SAL ISL/AMILCAR , CV) observed 2100 UTC 21 November 2014
Temperature: 24.0°C (75°F)
Dewpoint: 19.0°C (66°F) [RH = 74%]
Pressure (altimeter): 29.94 inches Hg (1014.0 mb)
Winds: from the N (360 degrees) at 6 MPH (5 knots; 2.6 m/s)
Visibility: 6 or more miles (10+ km)
Ceiling: 1400 feet AGL
Clouds: broken clouds at 1400 feet AGL
Weather: no significant weather observed at this time

METAR text: GVAC 212000Z 36008KT 9999 FEW012 BKN015 25/20 Q1013 NOSIG
Conditions at: GVAC (SAL ISL/AMILCAR , CV) observed 2000 UTC 21 November 2014
Temperature: 25.0°C (77°F)
Dewpoint: 20.0°C (68°F) [RH = 74%]
Pressure (altimeter): 29.91 inches Hg (1013.0 mb)
Winds: from the N (360 degrees) at 9 MPH (8 knots; 4.2 m/s)
Visibility: 6 or more miles (10+ km)
Ceiling: 1500 feet AGL
Clouds: few clouds at 1200 feet AGL
broken clouds at 1500 feet AGL
Weather: no significant weather observed at this time

METAR text: GVAC 211900Z 35007KT 9999 FEW012 BKN015 25/19 Q1013 NOSIG
Conditions at: GVAC (SAL ISL/AMILCAR , CV) observed 1900 UTC 21 November 2014
Temperature: 25.0°C (77°F)
Dewpoint: 19.0°C (66°F) [RH = 69%]
Pressure (altimeter): 29.91 inches Hg (1013.0 mb)
Winds: from the N (350 degrees) at 8 MPH (7 knots; 3.6 m/s)
Visibility: 6 or more miles (10+ km)
Ceiling: 1500 feet AGL
Clouds: few clouds at 1200 feet AGL
broken clouds at 1500 feet AGL
Weather: no significant weather observed at this time

METAR text: GVAC 211800Z 35008KT 9999 FEW012 SCT015 27/19 Q1013 NOSIG
Conditions at: GVAC (SAL ISL/AMILCAR , CV) observed 1800 UTC 21 November 2014
Temperature: 27.0°C (81°F)
Dewpoint: 19.0°C (66°F) [RH = 62%]
Pressure (altimeter): 29.91 inches Hg (1013.0 mb)
Winds: from the N (350 degrees) at 9 MPH (8 knots; 4.2 m/s)
Visibility: 6 or more miles (10+ km)
Ceiling: at least 12,000 feet AGL
Clouds: few clouds at 1200 feet AGL
scattered clouds at 1500 feet AGL
Weather: no significant weather observed at this time

METAR text: GVAC 211700Z 35010KT 9999 FEW012 SCT015 28/19 Q1012 NOSIG
Conditions at: GVAC (SAL ISL/AMILCAR , CV) observed 1700 UTC 21 November 2014
Temperature: 28.0°C (82°F)
Dewpoint: 19.0°C (66°F) [RH = 58%]
Pressure (altimeter): 29.88 inches Hg (1012.0 mb)
Winds: from the N (350 degrees) at 12 MPH (10 knots; 5.2 m/s)
Visibility: 6 or more miles (10+ km)
Ceiling: at least 12,000 feet AGL
Clouds: few clouds at 1200 feet AGL
scattered clouds at 1500 feet AGL
Weather: no significant weather observed at this time

METAR text: GVAC 211600Z 32013KT 9999 FEW012 BKN015 27/19 Q1012 NOSIG
Conditions at: GVAC (SAL ISL/AMILCAR , CV) observed 1600 UTC 21 November 2014
Temperature: 27.0°C (81°F)
Dewpoint: 19.0°C (66°F) [RH = 62%]
Pressure (altimeter): 29.88 inches Hg (1012.0 mb)
Winds: from the NW (320 degrees) at 15 MPH (13 knots; 6.8 m/s)
Visibility: 6 or more miles (10+ km)
Ceiling: 1500 feet AGL
Clouds: few clouds at 1200 feet AGL
broken clouds at 1500 feet AGL
Weather: no significant weather observed at this time

METAR text: GVAC 211500Z 33012KT 9999 FEW012 BKN015 28/19 Q1013 NOSIG
Conditions at: GVAC (SAL ISL/AMILCAR , CV) observed 1500 UTC 21 November 2014
Temperature: 28.0°C (82°F)
Dewpoint: 19.0°C (66°F) [RH = 58%]
Pressure (altimeter): 29.91 inches Hg (1013.0 mb)
Winds: from the NNW (330 degrees) at 14 MPH (12 knots; 6.2 m/s)
Visibility: 6 or more miles (10+ km)
Ceiling: 1500 feet AGL
Clouds: few clouds at 1200 feet AGL
broken clouds at 1500 feet AGL
Weather: no significant weather observed at this time

METAR text: GVAC 211400Z 36011KT 9999 BKN014 28/18 Q1014 NOSIG
Conditions at: GVAC (SAL ISL/AMILCAR , CV) observed 1400 UTC 21 November 2014
Temperature: 28.0°C (82°F)
Dewpoint: 18.0°C (64°F) [RH = 55%]
Pressure (altimeter): 29.94 inches Hg (1014.0 mb)
Winds: from the N (360 degrees) at 13 MPH (11 knots; 5.7 m/s)
Visibility: 6 or more miles (10+ km)
Ceiling: 1400 feet AGL
Clouds: broken clouds at 1400 feet AGL
Weather: no significant weather observed at this time

METAR text: GVAC 211300Z 35010KT 9999 SCT014 28/18 Q1015 NOSIG
Conditions at: GVAC (SAL ISL/AMILCAR , CV) observed 1300 UTC 21 November 2014
Temperature: 28.0°C (82°F)
Dewpoint: 18.0°C (64°F) [RH = 55%]
Pressure (altimeter): 29.97 inches Hg (1015.0 mb)
Winds: from the N (350 degrees) at 12 MPH (10 knots; 5.2 m/s)
Visibility: 6 or more miles (10+ km)
Ceiling: at least 12,000 feet AGL
Clouds: scattered clouds at 1400 feet AGL
Weather: no significant weather observed at this time